sensor_id;sensor_type;location;lat;lon;timestamp;pressure;altitude;pressure_sealevel;temperature;humidity
44920;BME280;30655;53.094;6.072;2022-09-02T00:02:07;102070.16;;;16.89;58.63
44920;BME280;30655;53.094;6.072;2022-09-02T00:04:39;102098.16;;;17.15;58.58
44920;BME280;30655;53.094;6.072;2022-09-02T00:07:08;101898.06;;;15.86;58.63
44920;BME280;30655;53.094;6.072;2022-09-02T00:09:36;102060.63;;;16.87;58.84
44920;BME280;30655;53.094;6.072;2022-09-02T00:12:07;101919.59;;;15.98;58.82
44920;BME280;30655;53.094;6.072;2022-09-02T00:14:40;101888.59;;;15.73;58.62
44920;BME280;30655;53.094;6.072;2022-09-02T00:17:10;101903.00;;;15.84;58.52
44920;BME280;30655;53.094;6.072;2022-09-02T00:19:38;102013.25;;;16.52;58.79
44920;BME280;30655;53.094;6.072;2022-09-02T00:22:09;101908.72;;;15.87;58.87
44920;BME280;30655;53.094;6.072;2022-09-02T00:24:37;102056.84;;;16.77;58.79
44920;BME280;30655;53.094;6.072;2022-09-02T00:27:12;101976.78;;;16.28;58.86
44920;BME280;30655;53.094;6.072;2022-09-02T00:29:44;101926.94;;;15.97;58.68
44920;BME280;30655;53.094;6.072;2022-09-02T00:32:18;102073.19;;;16.88;58.72
44920;BME280;30655;53.094;6.072;2022-09-02T00:34:53;101903.03;;;15.74;58.85
44920;BME280;30655;53.094;6.072;2022-09-02T00:37:25;102023.59;;;16.55;58.85
44920;BME280;30655;53.094;6.072;2022-09-02T00:39:56;101891.03;;;15.65;58.54
44920;BME280;30655;53.094;6.072;2022-09-02T00:42:25;102009.50;;;16.33;58.67
44920;BME280;30655;53.094;6.072;2022-09-02T00:45:11;102073.53;;;16.71;58.85
44920;BME280;30655;53.094;6.072;2022-09-02T00:51:02;102062.38;;;16.52;59.53
44920;BME280;30655;53.094;6.072;2022-09-02T00:57:00;101857.03;;;15.17;58.66
44920;BME280;30655;53.094;6.072;2022-09-02T00:59:45;101870.66;;;15.22;58.65
44920;BME280;30655;53.094;6.072;2022-09-02T01:02:27;102066.19;;;16.46;58.88
44920;BME280;30655;53.094;6.072;2022-09-02T01:05:07;101978.19;;;16.00;58.88
44920;BME280;30655;53.094;6.072;2022-09-02T01:14:36;102053.41;;;16.31;59.11
44920;BME280;30655;53.094;6.072;2022-09-02T01:20:34;101869.00;;;15.11;58.96
44920;BME280;30655;53.094;6.072;2022-09-02T01:23:31;102052.06;;;16.24;59.16
44920;BME280;30655;53.094;6.072;2022-09-02T01:26:06;101894.34;;;15.16;59.17
44920;BME280;30655;53.094;6.072;2022-09-02T01:28:50;102025.94;;;16.03;59.28
44920;BME280;30655;53.094;6.072;2022-09-02T01:31:39;101873.13;;;15.03;59.22
44920;BME280;30655;53.094;6.072;2022-09-02T01:34:16;101881.00;;;15.04;59.06
44920;BME280;30655;53.094;6.072;2022-09-02T01:37:08;101960.28;;;15.64;59.40
44920;BME280;30655;53.094;6.072;2022-09-02T01:39:47;102039.00;;;16.11;59.28
44920;BME280;30655;53.094;6.072;2022-09-02T01:42:20;101995.97;;;15.82;59.44
44920;BME280;30655;53.094;6.072;2022-09-02T01:45:00;102013.66;;;15.90;59.49
44920;BME280;30655;53.094;6.072;2022-09-02T01:47:35;101984.53;;;15.65;59.65
44920;BME280;30655;53.094;6.072;2022-09-02T01:50:07;101999.50;;;15.88;59.78
44920;BME280;30655;53.094;6.072;2022-09-02T01:52:44;101843.44;;;14.86;59.78
44920;BME280;30655;53.094;6.072;2022-09-02T01:55:15;102025.94;;;15.98;59.79
44920;BME280;30655;53.094;6.072;2022-09-02T01:57:43;101907.97;;;15.21;59.71
44920;BME280;30655;53.094;6.072;2022-09-02T02:00:12;101915.31;;;15.26;59.81
44920;BME280;30655;53.094;6.072;2022-09-02T02:02:42;102023.47;;;15.91;59.93
44920;BME280;30655;53.094;6.072;2022-09-02T02:05:15;101813.47;;;14.61;59.85
44920;BME280;30655;53.094;6.072;2022-09-02T02:08:13;101841.53;;;14.82;59.66
44920;BME280;30655;53.094;6.072;2022-09-02T02:10:45;101852.16;;;14.83;59.90
44920;BME280;30655;53.094;6.072;2022-09-02T02:13:18;101830.88;;;14.70;59.68
44920;BME280;30655;53.094;6.072;2022-09-02T02:15:46;101832.25;;;14.68;59.90
44920;BME280;30655;53.094;6.072;2022-09-02T02:18:18;101814.53;;;14.55;59.91
44920;BME280;30655;53.094;6.072;2022-09-02T02:20:46;101942.03;;;15.34;59.98
44920;BME280;30655;53.094;6.072;2022-09-02T02:23:15;101828.69;;;14.52;59.77
44920;BME280;30655;53.094;6.072;2022-09-02T02:25:54;101840.16;;;14.59;60.15
44920;BME280;30655;53.094;6.072;2022-09-02T02:28:27;101831.69;;;14.55;60.11
44920;BME280;30655;53.094;6.072;2022-09-02T02:30:59;102005.50;;;15.70;60.16
44920;BME280;30655;53.094;6.072;2022-09-02T02:33:31;102022.16;;;15.68;60.33
44920;BME280;30655;53.094;6.072;2022-09-02T02:39:32;101810.16;;;14.34;60.21
44920;BME280;30655;53.094;6.072;2022-09-02T02:42:06;101874.44;;;14.70;60.21
44920;BME280;30655;53.094;6.072;2022-09-02T02:44:36;101806.38;;;14.40;60.49
44920;BME280;30655;53.094;6.072;2022-09-02T02:47:10;101812.59;;;14.35;60.30
44920;BME280;30655;53.094;6.072;2022-09-02T02:49:44;101833.06;;;14.48;60.44
44920;BME280;30655;53.094;6.072;2022-09-02T02:52:14;101796.25;;;14.35;60.37
44920;BME280;30655;53.094;6.072;2022-09-02T02:54:41;101921.31;;;15.07;60.37
44920;BME280;30655;53.094;6.072;2022-09-02T02:57:10;101954.53;;;15.40;60.75
44920;BME280;30655;53.094;6.072;2022-09-02T02:59:38;101817.00;;;14.51;60.11
44920;BME280;30655;53.094;6.072;2022-09-02T03:02:08;101922.94;;;15.08;60.35
44920;BME280;30655;53.094;6.072;2022-09-02T03:04:44;101963.50;;;15.45;60.46
44920;BME280;30655;53.094;6.072;2022-09-02T03:07:21;101918.03;;;15.11;60.32
44920;BME280;30655;53.094;6.072;2022-09-02T03:09:50;101953.19;;;15.42;60.46
44920;BME280;30655;53.094;6.072;2022-09-02T03:12:28;101977.16;;;15.61;60.28
44920;BME280;30655;53.094;6.072;2022-09-02T03:14:55;101861.94;;;14.79;60.14
44920;BME280;30655;53.094;6.072;2022-09-02T03:17:27;101946.66;;;15.38;60.31
44920;BME280;30655;53.094;6.072;2022-09-02T03:19:59;101965.97;;;15.37;60.22
44920;BME280;30655;53.094;6.072;2022-09-02T03:22:31;101874.44;;;14.90;60.29
44920;BME280;30655;53.094;6.072;2022-09-02T03:25:01;101800.34;;;14.28;60.51
44920;BME280;30655;53.094;6.072;2022-09-02T03:27:33;101802.81;;;14.29;60.51
44920;BME280;30655;53.094;6.072;2022-09-02T03:30:00;101790.78;;;14.20;60.56
44920;BME280;30655;53.094;6.072;2022-09-02T03:32:31;101933.28;;;15.06;60.66
44920;BME280;30655;53.094;6.072;2022-09-02T03:35:10;101949.88;;;15.20;60.59
44920;BME280;30655;53.094;6.072;2022-09-02T03:37:40;101779.38;;;14.18;60.58
44920;BME280;30655;53.094;6.072;2022-09-02T03:40:15;101786.16;;;14.15;60.86
44920;BME280;30655;53.094;6.072;2022-09-02T03:43:06;101820.72;;;14.30;60.61
44920;BME280;30655;53.094;6.072;2022-09-02T03:45:39;101785.63;;;14.13;60.74
44920;BME280;30655;53.094;6.072;2022-09-02T03:48:20;101789.44;;;14.12;60.81
44920;BME280;30655;53.094;6.072;2022-09-02T03:50:59;101861.91;;;14.59;60.90
44920;BME280;30655;53.094;6.072;2022-09-02T03:53:45;101957.25;;;15.25;60.99
44920;BME280;30655;53.094;6.072;2022-09-02T03:56:16;101973.88;;;15.23;61.01
44920;BME280;30655;53.094;6.072;2022-09-02T03:58:49;101798.19;;;14.25;60.97
44920;BME280;30655;53.094;6.072;2022-09-02T04:01:23;101892.16;;;14.78;61.16
44920;BME280;30655;53.094;6.072;2022-09-02T04:04:03;101811.78;;;14.25;61.24
44920;BME280;30655;53.094;6.072;2022-09-02T04:06:36;101842.28;;;14.37;61.26
44920;BME280;30655;53.094;6.072;2022-09-02T04:09:05;101900.56;;;14.71;61.44
44920;BME280;30655;53.094;6.072;2022-09-02T04:11:41;101854.47;;;14.29;61.51
44920;BME280;30655;53.094;6.072;2022-09-02T04:14:28;101953.41;;;15.00;61.55
44920;BME280;30655;53.094;6.072;2022-09-02T04:17:07;101911.47;;;14.76;61.39
44920;BME280;30655;53.094;6.072;2022-09-02T04:19:39;101946.06;;;14.96;61.81
44920;BME280;30655;53.094;6.072;2022-09-02T04:22:11;101952.59;;;14.95;61.75
44920;BME280;30655;53.094;6.072;2022-09-02T04:24:44;101753.69;;;13.63;61.98
44920;BME280;30655;53.094;6.072;2022-09-02T04:27:18;101774.06;;;13.71;61.80
44920;BME280;30655;53.094;6.072;2022-09-02T04:29:48;101810.34;;;14.02;61.50
44920;BME280;30655;53.094;6.072;2022-09-02T04:32:20;101747.41;;;13.58;61.70
44920;BME280;30655;53.094;6.072;2022-09-02T04:37:33;101948.75;;;14.81;61.83
44920;BME280;30655;53.094;6.072;2022-09-02T04:40:04;101869.69;;;14.30;62.13
44920;BME280;30655;53.094;6.072;2022-09-02T04:42:37;101925.03;;;14.61;62.40
44920;BME280;30655;53.094;6.072;2022-09-02T04:45:11;101943.03;;;14.72;62.34
44920;BME280;30655;53.094;6.072;2022-09-02T04:47:56;101745.75;;;13.52;62.04
44920;BME280;30655;53.094;6.072;2022-09-02T04:50:23;101730.47;;;13.35;62.04
44920;BME280;30655;53.094;6.072;2022-09-02T04:52:53;101857.66;;;14.11;62.40
44920;BME280;30655;53.094;6.072;2022-09-02T04:55:23;101758.22;;;13.48;62.26
44920;BME280;30655;53.094;6.072;2022-09-02T04:57:52;101899.91;;;14.34;62.31
44920;BME280;30655;53.094;6.072;2022-09-02T05:00:23;101896.06;;;14.30;62.41
44920;BME280;30655;53.094;6.072;2022-09-02T05:02:53;101740.19;;;13.26;62.40
44920;BME280;30655;53.094;6.072;2022-09-02T05:05:20;101850.56;;;14.05;62.67
44920;BME280;30655;53.094;6.072;2022-09-02T05:07:51;101905.31;;;14.29;62.94
44920;BME280;30655;53.094;6.072;2022-09-02T05:10:19;101747.00;;;13.29;62.79
44920;BME280;30655;53.094;6.072;2022-09-02T05:12:52;101934.25;;;14.50;62.98
44920;BME280;30655;53.094;6.072;2022-09-02T05:15:28;101799.03;;;13.63;63.10
44920;BME280;30655;53.094;6.072;2022-09-02T05:17:58;101750.78;;;13.28;63.04
44920;BME280;30655;53.094;6.072;2022-09-02T05:20:25;101903.66;;;14.17;62.83
44920;BME280;30655;53.094;6.072;2022-09-02T05:22:54;101892.22;;;14.20;62.80
44920;BME280;30655;53.094;6.072;2022-09-02T05:25:21;101833.03;;;13.75;63.07
44920;BME280;30655;53.094;6.072;2022-09-02T05:27:48;101849.19;;;13.97;63.01
44920;BME280;30655;53.094;6.072;2022-09-02T05:30:15;101872.06;;;14.11;63.04
44920;BME280;30655;53.094;6.072;2022-09-02T05:32:47;101935.88;;;14.51;63.06
44920;BME280;30655;53.094;6.072;2022-09-02T05:35:14;101926.91;;;14.50;63.25
44920;BME280;30655;53.094;6.072;2022-09-02T05:37:48;101820.31;;;13.81;63.17
44920;BME280;30655;53.094;6.072;2022-09-02T05:40:17;101831.75;;;13.83;63.40
44920;BME280;30655;53.094;6.072;2022-09-02T05:42:48;101741.34;;;13.41;63.52
44920;BME280;30655;53.094;6.072;2022-09-02T05:45:16;101756.88;;;13.50;63.29
44920;BME280;30655;53.094;6.072;2022-09-02T05:47:48;101749.00;;;13.49;63.23
44920;BME280;30655;53.094;6.072;2022-09-02T05:50:22;101945.72;;;14.67;63.28
44920;BME280;30655;53.094;6.072;2022-09-02T05:53:09;101788.78;;;13.85;63.48
44920;BME280;30655;53.094;6.072;2022-09-02T05:55:42;101815.50;;;14.03;63.46
44920;BME280;30655;53.094;6.072;2022-09-02T05:58:12;101750.69;;;13.65;63.39
44920;BME280;30655;53.094;6.072;2022-09-02T06:00:42;101736.56;;;13.63;63.14
44920;BME280;30655;53.094;6.072;2022-09-02T06:03:13;101921.84;;;14.84;63.29
44920;BME280;30655;53.094;6.072;2022-09-02T06:05:42;101739.03;;;13.69;63.30
44920;BME280;30655;53.094;6.072;2022-09-02T06:08:18;101918.56;;;14.92;63.01
44920;BME280;30655;53.094;6.072;2022-09-02T06:10:46;101807.94;;;14.26;63.23
44920;BME280;30655;53.094;6.072;2022-09-02T06:13:26;101914.22;;;15.01;63.28
44920;BME280;30655;53.094;6.072;2022-09-02T06:15:56;101733.09;;;13.88;63.17
44920;BME280;30655;53.094;6.072;2022-09-02T06:18:26;101844.22;;;14.56;63.24
44920;BME280;30655;53.094;6.072;2022-09-02T06:20:54;101713.25;;;13.87;63.33
44920;BME280;30655;53.094;6.072;2022-09-02T06:23:21;101736.09;;;13.96;63.11
44920;BME280;30655;53.094;6.072;2022-09-02T06:25:49;101721.44;;;13.92;63.27
44920;BME280;30655;53.094;6.072;2022-09-02T06:28:16;101732.88;;;13.99;63.31
44920;BME280;30655;53.094;6.072;2022-09-02T06:30:44;101734.22;;;14.07;63.25
44920;BME280;30655;53.094;6.072;2022-09-02T06:33:19;101783.00;;;14.44;63.19
44920;BME280;30655;53.094;6.072;2022-09-02T06:35:51;101749.50;;;14.23;63.17
44920;BME280;30655;53.094;6.072;2022-09-02T06:38:18;101757.97;;;14.42;63.09
44920;BME280;30655;53.094;6.072;2022-09-02T06:40:49;101915.03;;;15.47;63.25
44920;BME280;30655;53.094;6.072;2022-09-02T06:43:17;101829.81;;;14.96;62.84
44920;BME280;30655;53.094;6.072;2022-09-02T06:45:44;101925.66;;;15.59;63.31
44920;BME280;30655;53.094;6.072;2022-09-02T06:48:11;101814.03;;;15.03;63.08
44920;BME280;30655;53.094;6.072;2022-09-02T06:50:42;101736.75;;;14.54;62.82
44920;BME280;30655;53.094;6.072;2022-09-02T06:53:15;101844.22;;;15.32;63.08
44920;BME280;30655;53.094;6.072;2022-09-02T06:55:44;101791.69;;;15.01;62.85
44920;BME280;30655;53.094;6.072;2022-09-02T06:58:22;101715.53;;;14.61;62.83
44920;BME280;30655;53.094;6.072;2022-09-02T07:01:17;101736.75;;;14.89;62.66
44920;BME280;30655;53.094;6.072;2022-09-02T07:03:44;101865.41;;;15.71;62.75
44920;BME280;30655;53.094;6.072;2022-09-02T07:06:16;101818.59;;;15.48;62.77
44920;BME280;30655;53.094;6.072;2022-09-02T07:08:45;101833.78;;;15.70;62.55
44920;BME280;30655;53.094;6.072;2022-09-02T07:11:16;101892.00;;;16.04;62.49
44920;BME280;30655;53.094;6.072;2022-09-02T07:13:43;101784.25;;;15.47;62.22
44920;BME280;30655;53.094;6.072;2022-09-02T07:16:10;101887.59;;;16.23;62.09
44920;BME280;30655;53.094;6.072;2022-09-02T07:18:44;101755.09;;;15.48;62.05
44920;BME280;30655;53.094;6.072;2022-09-02T07:21:12;101898.13;;;16.40;62.23
44920;BME280;30655;53.094;6.072;2022-09-02T07:23:39;101816.25;;;15.96;62.14
44920;BME280;30655;53.094;6.072;2022-09-02T07:26:12;101813.75;;;16.05;61.81
44920;BME280;30655;53.094;6.072;2022-09-02T07:28:40;101884.13;;;16.57;61.67
44920;BME280;30655;53.094;6.072;2022-09-02T07:31:07;101837.09;;;16.26;61.35
44920;BME280;30655;53.094;6.072;2022-09-02T07:33:35;101898.72;;;16.81;61.46
44920;BME280;30655;53.094;6.072;2022-09-02T07:36:03;101846.44;;;16.59;61.27
44920;BME280;30655;53.094;6.072;2022-09-02T07:38:30;101867.59;;;16.82;60.90
44920;BME280;30655;53.094;6.072;2022-09-02T07:40:57;101767.56;;;16.23;60.85
44920;BME280;30655;53.094;6.072;2022-09-02T07:43:27;101888.41;;;17.12;60.94
44920;BME280;30655;53.094;6.072;2022-09-02T07:45:55;101859.75;;;17.04;60.67
44920;BME280;30655;53.094;6.072;2022-09-02T07:48:24;101853.69;;;17.12;60.40
44920;BME280;30655;53.094;6.072;2022-09-02T07:50:51;101745.25;;;16.50;60.42
44920;BME280;30655;53.094;6.072;2022-09-02T07:53:18;101848.38;;;17.26;60.11
44920;BME280;30655;53.094;6.072;2022-09-02T07:55:46;101796.72;;;17.01;59.97
44920;BME280;30655;53.094;6.072;2022-09-02T07:58:14;101713.00;;;16.57;59.98
44920;BME280;30655;53.094;6.072;2022-09-02T08:00:43;101714.84;;;16.67;59.45
44920;BME280;30655;53.094;6.072;2022-09-02T08:03:11;101764.38;;;17.13;59.50
44920;BME280;30655;53.094;6.072;2022-09-02T08:05:39;101852.75;;;17.80;59.16
44920;BME280;30655;53.094;6.072;2022-09-02T08:08:10;101683.78;;;16.87;58.96
44920;BME280;30655;53.094;6.072;2022-09-02T08:10:38;101742.84;;;17.30;58.56
44920;BME280;30655;53.094;6.072;2022-09-02T08:13:06;101876.78;;;18.25;57.98
44920;BME280;30655;53.094;6.072;2022-09-02T08:15:34;101734.94;;;17.52;57.98
44920;BME280;30655;53.094;6.072;2022-09-02T08:18:05;101740.75;;;17.70;57.35
44920;BME280;30655;53.094;6.072;2022-09-02T08:20:34;101779.66;;;18.04;57.16
44920;BME280;30655;53.094;6.072;2022-09-02T08:23:03;101706.91;;;17.66;56.60
44920;BME280;30655;53.094;6.072;2022-09-02T08:25:37;101697.47;;;17.77;56.41
44920;BME280;30655;53.094;6.072;2022-09-02T08:28:05;101799.56;;;18.47;55.92
44920;BME280;30655;53.094;6.072;2022-09-02T08:30:32;101826.72;;;18.81;55.76
44920;BME280;30655;53.094;6.072;2022-09-02T08:32:59;101829.41;;;19.00;55.44
44920;BME280;30655;53.094;6.072;2022-09-02T08:35:28;101756.88;;;18.65;55.31
44920;BME280;30655;53.094;6.072;2022-09-02T08:38:03;101683.75;;;18.33;54.81
44920;BME280;30655;53.094;6.072;2022-09-02T08:40:38;101836.28;;;19.43;54.64
44920;BME280;30655;53.094;6.072;2022-09-02T08:43:25;101834.22;;;19.54;52.91
44920;BME280;30655;53.094;6.072;2022-09-02T08:45:57;101773.75;;;19.31;53.49
44920;BME280;30655;53.094;6.072;2022-09-02T08:48:33;101673.34;;;18.81;53.41
44920;BME280;30655;53.094;6.072;2022-09-02T08:51:07;101851.47;;;19.95;51.86
44920;BME280;30655;53.094;6.072;2022-09-02T08:54:04;101741.16;;;19.44;52.21
44920;BME280;30655;53.094;6.072;2022-09-02T08:56:40;101689.00;;;19.21;52.03
44920;BME280;30655;53.094;6.072;2022-09-02T08:59:20;101846.16;;;20.40;51.62
44920;BME280;30655;53.094;6.072;2022-09-02T09:01:58;101686.13;;;19.54;50.23
44920;BME280;30655;53.094;6.072;2022-09-02T09:04:42;101672.94;;;19.56;50.68
44920;BME280;30655;53.094;6.072;2022-09-02T09:10:29;101682.59;;;19.89;50.12
44920;BME280;30655;53.094;6.072;2022-09-02T09:13:24;101848.69;;;20.94;49.39
44920;BME280;30655;53.094;6.072;2022-09-02T09:16:04;101851.19;;;21.04;49.03
44920;BME280;30655;53.094;6.072;2022-09-02T09:18:38;101775.63;;;20.71;48.77
44920;BME280;30655;53.094;6.072;2022-09-02T09:21:05;101823.47;;;21.15;48.93
44920;BME280;30655;53.094;6.072;2022-09-02T09:23:37;101837.78;;;21.34;48.22
44920;BME280;30655;53.094;6.072;2022-09-02T09:26:15;101823.94;;;21.47;48.55
44920;BME280;30655;53.094;6.072;2022-09-02T09:28:44;101820.91;;;21.58;47.75
44920;BME280;30655;53.094;6.072;2022-09-02T09:31:13;101814.78;;;21.69;47.64
44920;BME280;30655;53.094;6.072;2022-09-02T09:33:56;101786.94;;;21.62;47.07
44920;BME280;30655;53.094;6.072;2022-09-02T09:36:46;101808.19;;;21.87;44.94
44920;BME280;30655;53.094;6.072;2022-09-02T09:39:19;101732.19;;;21.43;44.92
44920;BME280;30655;53.094;6.072;2022-09-02T09:41:49;101750.84;;;21.72;44.96
44920;BME280;30655;53.094;6.072;2022-09-02T09:44:41;101707.44;;;21.52;43.07
44920;BME280;30655;53.094;6.072;2022-09-02T09:47:13;101792.09;;;22.29;45.29
44920;BME280;30655;53.094;6.072;2022-09-02T09:49:45;101762.59;;;22.38;45.13
44920;BME280;30655;53.094;6.072;2022-09-02T09:52:21;101788.53;;;23.27;44.18
44920;BME280;30655;53.094;6.072;2022-09-02T09:55:05;101795.78;;;24.07;42.17
44920;BME280;30655;53.094;6.072;2022-09-02T09:57:34;101783.47;;;24.79;43.10
44920;BME280;30655;53.094;6.072;2022-09-02T10:00:10;101792.88;;;25.68;42.40
44920;BME280;30655;53.094;6.072;2022-09-02T10:02:45;101761.75;;;26.11;39.83
44920;BME280;30655;53.094;6.072;2022-09-02T10:05:17;101757.88;;;26.40;38.52
44920;BME280;30655;53.094;6.072;2022-09-02T10:07:52;101795.47;;;27.09;35.76
44920;BME280;30655;53.094;6.072;2022-09-02T10:10:22;101776.31;;;27.19;36.68
44920;BME280;30655;53.094;6.072;2022-09-02T10:13:02;101704.13;;;27.19;35.56
44920;BME280;30655;53.094;6.072;2022-09-02T10:15:47;101683.50;;;27.52;35.42
44920;BME280;30655;53.094;6.072;2022-09-02T10:18:26;101719.50;;;28.18;34.09
44920;BME280;30655;53.094;6.072;2022-09-02T10:21:03;101679.44;;;28.42;33.64
44920;BME280;30655;53.094;6.072;2022-09-02T10:23:48;101692.78;;;28.75;30.51
44920;BME280;30655;53.094;6.072;2022-09-02T10:26:31;101752.53;;;29.26;32.13
44920;BME280;30655;53.094;6.072;2022-09-02T10:29:32;101645.66;;;29.08;29.50
44920;BME280;30655;53.094;6.072;2022-09-02T10:32:29;101757.78;;;29.84;28.41
44920;BME280;30655;53.094;6.072;2022-09-02T10:35:07;101746.88;;;29.98;28.08
44920;BME280;30655;53.094;6.072;2022-09-02T10:37:42;101742.53;;;30.01;28.82
44920;BME280;30655;53.094;6.072;2022-09-02T10:40:21;101759.56;;;30.25;29.36
44920;BME280;30655;53.094;6.072;2022-09-02T10:42:59;101732.66;;;30.40;27.00
44920;BME280;30655;53.094;6.072;2022-09-02T10:45:34;101671.56;;;29.94;25.93
44920;BME280;30655;53.094;6.072;2022-09-02T10:48:12;101750.00;;;30.93;27.12
44920;BME280;30655;53.094;6.072;2022-09-02T10:50:52;101740.03;;;30.55;27.25
44920;BME280;30655;53.094;6.072;2022-09-02T10:53:36;101648.38;;;30.57;26.10
44920;BME280;30655;53.094;6.072;2022-09-02T10:56:15;101735.25;;;31.44;26.11
44920;BME280;30655;53.094;6.072;2022-09-02T10:58:48;101724.22;;;31.61;27.30
44920;BME280;30655;53.094;6.072;2022-09-02T11:01:21;101732.44;;;32.02;26.67
44920;BME280;30655;53.094;6.072;2022-09-02T11:03:59;101719.38;;;32.27;25.52
44920;BME280;30655;53.094;6.072;2022-09-02T11:06:29;101716.69;;;32.66;25.41
44920;BME280;30655;53.094;6.072;2022-09-02T11:09:25;101678.63;;;32.55;24.51
44920;BME280;30655;53.094;6.072;2022-09-02T11:11:57;101655.00;;;32.17;23.81
44920;BME280;30655;53.094;6.072;2022-09-02T11:14:29;101649.44;;;32.27;24.56
44920;BME280;30655;53.094;6.072;2022-09-02T11:17:04;101723.91;;;32.96;22.96
44920;BME280;30655;53.094;6.072;2022-09-02T11:19:42;101711.50;;;32.89;23.13
44920;BME280;30655;53.094;6.072;2022-09-02T11:22:20;101660.69;;;32.80;23.14
44920;BME280;30655;53.094;6.072;2022-09-02T11:24:59;101655.09;;;33.02;23.20
44920;BME280;30655;53.094;6.072;2022-09-02T11:27:33;101682.28;;;33.05;23.02
44920;BME280;30655;53.094;6.072;2022-09-02T11:30:12;101705.44;;;32.52;23.17
44920;BME280;30655;53.094;6.072;2022-09-02T11:32:45;101580.16;;;31.89;23.07
44920;BME280;30655;53.094;6.072;2022-09-02T11:35:16;101711.91;;;32.99;22.84
44920;BME280;30655;53.094;6.072;2022-09-02T11:37:50;101635.09;;;32.78;22.78
44920;BME280;30655;53.094;6.072;2022-09-02T11:40:25;101638.28;;;33.16;22.48
44920;BME280;30655;53.094;6.072;2022-09-02T11:43:22;101574.28;;;32.97;22.14
44920;BME280;30655;53.094;6.072;2022-09-02T11:46:05;101582.97;;;33.41;21.65
44920;BME280;30655;53.094;6.072;2022-09-02T11:51:56;101637.22;;;33.97;21.13
44920;BME280;30655;53.094;6.072;2022-09-02T11:54:33;101672.03;;;34.10;20.86
44920;BME280;30655;53.094;6.072;2022-09-02T11:57:04;101644.50;;;33.84;21.20
44920;BME280;30655;53.094;6.072;2022-09-02T12:00:01;101687.63;;;34.18;20.82
44920;BME280;30655;53.094;6.072;2022-09-02T12:02:35;101617.28;;;33.81;21.38
44920;BME280;30655;53.094;6.072;2022-09-02T12:08:11;101671.56;;;34.26;21.68
44920;BME280;30655;53.094;6.072;2022-09-02T12:10:59;101670.00;;;34.21;20.34
44920;BME280;30655;53.094;6.072;2022-09-02T12:13:37;101662.78;;;34.20;20.72
44920;BME280;30655;53.094;6.072;2022-09-02T12:16:33;101672.41;;;34.08;19.59
44920;BME280;30655;53.094;6.072;2022-09-02T12:19:26;101597.38;;;33.47;20.39
44920;BME280;30655;53.094;6.072;2022-09-02T12:22:30;101657.34;;;33.78;20.64
44920;BME280;30655;53.094;6.072;2022-09-02T12:24:59;101649.16;;;34.11;21.16
44920;BME280;30655;53.094;6.072;2022-09-02T12:27:28;101650.03;;;33.98;20.93
44920;BME280;30655;53.094;6.072;2022-09-02T12:29:57;101612.34;;;33.99;20.81
44920;BME280;30655;53.094;6.072;2022-09-02T12:35:34;101648.38;;;34.73;20.37
44920;BME280;30655;53.094;6.072;2022-09-02T12:38:31;101630.88;;;34.99;19.38
44920;BME280;30655;53.094;6.072;2022-09-02T12:41:10;101640.06;;;35.04;18.88
44920;BME280;30655;53.094;6.072;2022-09-02T12:44:03;101615.78;;;34.86;19.96
44920;BME280;30655;53.094;6.072;2022-09-02T12:46:51;101632.94;;;35.36;19.57
44920;BME280;30655;53.094;6.072;2022-09-02T12:49:46;101613.91;;;35.48;19.42
44920;BME280;30655;53.094;6.072;2022-09-02T12:52:42;101633.47;;;35.58;18.31
44920;BME280;30655;53.094;6.072;2022-09-02T12:55:15;101616.66;;;35.55;18.84
44920;BME280;30655;53.094;6.072;2022-09-02T12:57:51;101622.50;;;35.33;19.88
44920;BME280;30655;53.094;6.072;2022-09-02T13:00:26;101565.97;;;34.46;20.16
44920;BME280;30655;53.094;6.072;2022-09-02T13:03:06;101610.13;;;34.38;18.94
44920;BME280;30655;53.094;6.072;2022-09-02T13:05:49;101601.97;;;33.96;19.86
44920;BME280;30655;53.094;6.072;2022-09-02T13:11:59;101601.44;;;33.32;20.51
44920;BME280;30655;53.094;6.072;2022-09-02T13:15:01;101598.25;;;33.12;21.11
44920;BME280;30655;53.094;6.072;2022-09-02T13:18:00;101614.69;;;33.03;20.78
44920;BME280;30655;53.094;6.072;2022-09-02T13:21:00;101603.84;;;32.30;21.52
44920;BME280;30655;53.094;6.072;2022-09-02T13:24:07;101535.00;;;31.69;21.76
44920;BME280;30655;53.094;6.072;2022-09-02T13:30:17;101519.72;;;31.42;22.04
44920;BME280;30655;53.094;6.072;2022-09-02T13:33:04;101608.22;;;32.14;21.84
44920;BME280;30655;53.094;6.072;2022-09-02T13:35:51;101449.84;;;31.35;21.75
44920;BME280;30655;53.094;6.072;2022-09-02T13:38:22;101472.63;;;31.51;21.27
44920;BME280;30655;53.094;6.072;2022-09-02T13:40:55;101541.91;;;32.11;21.24
44920;BME280;30655;53.094;6.072;2022-09-02T13:43:25;101517.50;;;32.18;20.86
44920;BME280;30655;53.094;6.072;2022-09-02T13:46:00;101595.88;;;33.17;21.32
44920;BME280;30655;53.094;6.072;2022-09-02T13:48:46;101563.81;;;33.25;20.64
44920;BME280;30655;53.094;6.072;2022-09-02T13:51:21;101527.00;;;33.13;20.35
44920;BME280;30655;53.094;6.072;2022-09-02T13:54:03;101599.72;;;33.62;20.26
44920;BME280;30655;53.094;6.072;2022-09-02T13:56:51;101592.47;;;33.68;20.55
44920;BME280;30655;53.094;6.072;2022-09-02T13:59:33;101504.69;;;32.84;20.50
44920;BME280;30655;53.094;6.072;2022-09-02T14:02:25;101555.13;;;32.77;20.68
44920;BME280;30655;53.094;6.072;2022-09-02T14:04:58;101552.72;;;32.37;21.21
44920;BME280;30655;53.094;6.072;2022-09-02T14:07:32;101442.34;;;31.60;21.56
44920;BME280;30655;53.094;6.072;2022-09-02T14:11:10;101583.41;;;32.05;21.64
44920;BME280;30655;53.094;6.072;2022-09-02T14:14:02;101575.59;;;31.49;23.18
44920;BME280;30655;53.094;6.072;2022-09-02T14:16:31;101436.34;;;30.61;22.31